Villareales, Texas
Current Conditions -  °F | °C
As of 9:55 PM on Tuesday 25 Nov 2014 (Local Time) from KEBG Reporting Station
Clear Clear  
Wind Chill: 51°   Ceiling: Unl
Heat Index: 51°   Visibility: 10mi
Dew Point: 41°   Wind: 3mph
Humidity: 69%   Direction: 10°N
Pressure: 30.31"   Gusts: NA
Location:  26.5735°N, 98.695°W
Report Text: KEBG 260355Z AUTO 01003KT 10SM CLR 11/05 A3031 RMK AO2 T01070052
Loading
Personal Weather Stations






























Interactive Weather Map New forecast layout! Learn more

10-Day Weather Forecast

Advertisements
Track Severe Weather on mobile